sensor_id;sensor_type;location;lat;lon;timestamp;P1;durP1;ratioP1;P2;durP2;ratioP2
3331;SDS011;1678;50.94845400;5.30809100;2023-01-29T00:01:59;55.42;;;28.58;;
3331;SDS011;1678;50.94845400;5.30809100;2023-01-29T00:04:29;54.15;;;27.00;;
3331;SDS011;1678;50.94845400;5.30809100;2023-01-29T00:06:58;41.75;;;25.10;;
3331;SDS011;1678;50.94845400;5.30809100;2023-01-29T00:09:27;40.92;;;26.13;;
3331;SDS011;1678;50.94845400;5.30809100;2023-01-29T00:11:57;42.33;;;23.55;;
3331;SDS011;1678;50.94845400;5.30809100;2023-01-29T00:14:25;51.60;;;25.20;;
3331;SDS011;1678;50.94845400;5.30809100;2023-01-29T00:16:53;46.78;;;27.33;;
3331;SDS011;1678;50.94845400;5.30809100;2023-01-29T00:19:22;45.97;;;22.90;;
3331;SDS011;1678;50.94845400;5.30809100;2023-01-29T00:21:50;50.92;;;26.33;;
3331;SDS011;1678;50.94845400;5.30809100;2023-01-29T00:24:19;56.28;;;28.58;;
3331;SDS011;1678;50.94845400;5.30809100;2023-01-29T00:26:48;45.45;;;26.65;;
3331;SDS011;1678;50.94845400;5.30809100;2023-01-29T00:29:16;51.53;;;27.70;;
3331;SDS011;1678;50.94845400;5.30809100;2023-01-29T00:31:44;44.95;;;26.80;;
3331;SDS011;1678;50.94845400;5.30809100;2023-01-29T00:34:13;52.20;;;27.38;;
3331;SDS011;1678;50.94845400;5.30809100;2023-01-29T00:36:41;40.70;;;24.88;;
3331;SDS011;1678;50.94845400;5.30809100;2023-01-29T00:39:10;53.45;;;24.85;;
3331;SDS011;1678;50.94845400;5.30809100;2023-01-29T00:41:40;48.13;;;27.02;;
3331;SDS011;1678;50.94845400;5.30809100;2023-01-29T00:44:40;41.10;;;22.40;;
3331;SDS011;1678;50.94845400;5.30809100;2023-01-29T00:47:26;49.15;;;25.77;;
3331;SDS011;1678;50.94845400;5.30809100;2023-01-29T00:49:59;46.90;;;24.80;;
3331;SDS011;1678;50.94845400;5.30809100;2023-01-29T00:52:27;42.47;;;24.85;;
3331;SDS011;1678;50.94845400;5.30809100;2023-01-29T00:54:56;43.30;;;23.85;;
3331;SDS011;1678;50.94845400;5.30809100;2023-01-29T00:57:27;54.13;;;27.27;;
3331;SDS011;1678;50.94845400;5.30809100;2023-01-29T00:59:57;43.22;;;25.30;;
3331;SDS011;1678;50.94845400;5.30809100;2023-01-29T01:02:25;46.08;;;23.60;;
3331;SDS011;1678;50.94845400;5.30809100;2023-01-29T01:05:12;49.45;;;23.10;;
3331;SDS011;1678;50.94845400;5.30809100;2023-01-29T01:07:43;48.90;;;24.98;;
3331;SDS011;1678;50.94845400;5.30809100;2023-01-29T01:10:12;48.92;;;25.63;;
3331;SDS011;1678;50.94845400;5.30809100;2023-01-29T01:12:49;50.65;;;25.67;;
3331;SDS011;1678;50.94845400;5.30809100;2023-01-29T01:15:20;46.45;;;24.52;;
3331;SDS011;1678;50.94845400;5.30809100;2023-01-29T01:17:52;58.92;;;26.92;;
3331;SDS011;1678;50.94845400;5.30809100;2023-01-29T01:20:21;47.80;;;24.60;;
3331;SDS011;1678;50.94845400;5.30809100;2023-01-29T01:22:49;57.75;;;23.52;;
3331;SDS011;1678;50.94845400;5.30809100;2023-01-29T01:25:17;43.58;;;23.90;;
3331;SDS011;1678;50.94845400;5.30809100;2023-01-29T01:27:46;48.53;;;24.70;;
3331;SDS011;1678;50.94845400;5.30809100;2023-01-29T01:30:18;40.88;;;24.67;;
3331;SDS011;1678;50.94845400;5.30809100;2023-01-29T01:32:46;44.00;;;23.73;;
3331;SDS011;1678;50.94845400;5.30809100;2023-01-29T01:35:15;41.80;;;26.50;;
3331;SDS011;1678;50.94845400;5.30809100;2023-01-29T01:37:43;39.70;;;22.23;;
3331;SDS011;1678;50.94845400;5.30809100;2023-01-29T01:40:13;46.35;;;24.30;;
3331;SDS011;1678;50.94845400;5.30809100;2023-01-29T01:42:43;40.95;;;23.83;;
3331;SDS011;1678;50.94845400;5.30809100;2023-01-29T01:45:18;47.28;;;25.13;;
3331;SDS011;1678;50.94845400;5.30809100;2023-01-29T01:47:51;42.90;;;21.40;;
3331;SDS011;1678;50.94845400;5.30809100;2023-01-29T01:50:23;41.22;;;23.80;;
3331;SDS011;1678;50.94845400;5.30809100;2023-01-29T01:52:57;39.03;;;22.88;;
3331;SDS011;1678;50.94845400;5.30809100;2023-01-29T01:55:31;36.15;;;22.45;;
3331;SDS011;1678;50.94845400;5.30809100;2023-01-29T01:58:02;34.85;;;21.67;;
3331;SDS011;1678;50.94845400;5.30809100;2023-01-29T02:00:36;41.42;;;22.85;;
3331;SDS011;1678;50.94845400;5.30809100;2023-01-29T02:03:05;41.58;;;22.23;;
3331;SDS011;1678;50.94845400;5.30809100;2023-01-29T02:05:53;34.67;;;20.17;;
3331;SDS011;1678;50.94845400;5.30809100;2023-01-29T02:08:42;36.03;;;20.90;;
3331;SDS011;1678;50.94845400;5.30809100;2023-01-29T02:11:33;36.88;;;20.98;;
3331;SDS011;1678;50.94845400;5.30809100;2023-01-29T02:14:01;38.05;;;21.63;;
3331;SDS011;1678;50.94845400;5.30809100;2023-01-29T02:16:31;39.92;;;21.80;;
3331;SDS011;1678;50.94845400;5.30809100;2023-01-29T02:19:00;41.55;;;21.60;;
3331;SDS011;1678;50.94845400;5.30809100;2023-01-29T02:21:51;45.00;;;21.38;;
3331;SDS011;1678;50.94845400;5.30809100;2023-01-29T02:24:38;37.00;;;22.27;;
3331;SDS011;1678;50.94845400;5.30809100;2023-01-29T02:30:43;34.13;;;21.65;;
3331;SDS011;1678;50.94845400;5.30809100;2023-01-29T02:33:18;44.75;;;21.33;;
3331;SDS011;1678;50.94845400;5.30809100;2023-01-29T02:35:51;35.70;;;19.25;;
3331;SDS011;1678;50.94845400;5.30809100;2023-01-29T02:38:27;37.03;;;21.23;;
3331;SDS011;1678;50.94845400;5.30809100;2023-01-29T02:41:02;38.42;;;22.80;;
3331;SDS011;1678;50.94845400;5.30809100;2023-01-29T02:43:38;29.38;;;18.13;;
3331;SDS011;1678;50.94845400;5.30809100;2023-01-29T02:46:14;38.25;;;20.15;;
3331;SDS011;1678;50.94845400;5.30809100;2023-01-29T02:48:47;49.83;;;24.27;;
3331;SDS011;1678;50.94845400;5.30809100;2023-01-29T02:51:23;40.35;;;21.38;;
3331;SDS011;1678;50.94845400;5.30809100;2023-01-29T02:53:58;47.28;;;24.52;;
3331;SDS011;1678;50.94845400;5.30809100;2023-01-29T02:56:32;35.70;;;20.77;;
3331;SDS011;1678;50.94845400;5.30809100;2023-01-29T02:59:06;47.95;;;22.38;;
3331;SDS011;1678;50.94845400;5.30809100;2023-01-29T03:01:37;35.03;;;18.58;;
3331;SDS011;1678;50.94845400;5.30809100;2023-01-29T03:04:13;37.15;;;20.33;;
3331;SDS011;1678;50.94845400;5.30809100;2023-01-29T03:06:45;38.63;;;20.38;;
3331;SDS011;1678;50.94845400;5.30809100;2023-01-29T03:09:19;42.38;;;20.13;;
3331;SDS011;1678;50.94845400;5.30809100;2023-01-29T03:11:53;42.10;;;20.40;;
3331;SDS011;1678;50.94845400;5.30809100;2023-01-29T03:14:28;38.42;;;20.73;;
3331;SDS011;1678;50.94845400;5.30809100;2023-01-29T03:17:28;39.30;;;19.20;;
3331;SDS011;1678;50.94845400;5.30809100;2023-01-29T03:20:02;31.60;;;17.88;;
3331;SDS011;1678;50.94845400;5.30809100;2023-01-29T03:22:34;37.47;;;20.42;;
3331;SDS011;1678;50.94845400;5.30809100;2023-01-29T03:25:04;39.58;;;19.17;;
3331;SDS011;1678;50.94845400;5.30809100;2023-01-29T03:27:54;34.67;;;20.13;;
3331;SDS011;1678;50.94845400;5.30809100;2023-01-29T03:30:45;38.03;;;20.85;;
3331;SDS011;1678;50.94845400;5.30809100;2023-01-29T03:33:37;33.15;;;21.02;;
3331;SDS011;1678;50.94845400;5.30809100;2023-01-29T03:36:12;40.83;;;20.95;;
3331;SDS011;1678;50.94845400;5.30809100;2023-01-29T03:38:43;38.33;;;21.58;;
3331;SDS011;1678;50.94845400;5.30809100;2023-01-29T03:41:13;33.63;;;18.95;;
3331;SDS011;1678;50.94845400;5.30809100;2023-01-29T03:43:50;28.85;;;19.05;;
3331;SDS011;1678;50.94845400;5.30809100;2023-01-29T03:46:25;40.63;;;22.67;;
3331;SDS011;1678;50.94845400;5.30809100;2023-01-29T03:48:59;32.85;;;21.25;;
3331;SDS011;1678;50.94845400;5.30809100;2023-01-29T03:51:34;28.50;;;19.13;;
3331;SDS011;1678;50.94845400;5.30809100;2023-01-29T03:54:06;36.42;;;18.33;;
3331;SDS011;1678;50.94845400;5.30809100;2023-01-29T03:56:48;40.00;;;20.33;;
3331;SDS011;1678;50.94845400;5.30809100;2023-01-29T03:59:26;36.50;;;20.67;;
3331;SDS011;1678;50.94845400;5.30809100;2023-01-29T04:02:05;34.67;;;19.10;;
3331;SDS011;1678;50.94845400;5.30809100;2023-01-29T04:04:36;44.80;;;21.60;;
3331;SDS011;1678;50.94845400;5.30809100;2023-01-29T04:07:09;30.38;;;18.38;;
3331;SDS011;1678;50.94845400;5.30809100;2023-01-29T04:09:41;48.70;;;21.55;;
3331;SDS011;1678;50.94845400;5.30809100;2023-01-29T04:12:13;39.50;;;19.85;;
3331;SDS011;1678;50.94845400;5.30809100;2023-01-29T04:14:45;37.08;;;20.80;;
3331;SDS011;1678;50.94845400;5.30809100;2023-01-29T04:17:16;39.80;;;19.52;;
3331;SDS011;1678;50.94845400;5.30809100;2023-01-29T04:19:49;39.55;;;20.05;;
3331;SDS011;1678;50.94845400;5.30809100;2023-01-29T04:22:17;33.50;;;20.73;;
3331;SDS011;1678;50.94845400;5.30809100;2023-01-29T04:24:48;35.65;;;21.77;;
3331;SDS011;1678;50.94845400;5.30809100;2023-01-29T04:27:20;35.42;;;20.63;;
3331;SDS011;1678;50.94845400;5.30809100;2023-01-29T04:29:56;44.83;;;21.58;;
3331;SDS011;1678;50.94845400;5.30809100;2023-01-29T04:32:38;41.15;;;21.73;;
3331;SDS011;1678;50.94845400;5.30809100;2023-01-29T04:35:21;34.70;;;20.20;;
3331;SDS011;1678;50.94845400;5.30809100;2023-01-29T04:37:57;34.35;;;19.48;;
3331;SDS011;1678;50.94845400;5.30809100;2023-01-29T04:40:34;32.53;;;19.48;;
3331;SDS011;1678;50.94845400;5.30809100;2023-01-29T04:43:10;32.67;;;17.42;;
3331;SDS011;1678;50.94845400;5.30809100;2023-01-29T04:45:45;29.70;;;19.13;;
3331;SDS011;1678;50.94845400;5.30809100;2023-01-29T04:48:26;44.78;;;21.60;;
3331;SDS011;1678;50.94845400;5.30809100;2023-01-29T04:51:05;35.30;;;19.30;;
3331;SDS011;1678;50.94845400;5.30809100;2023-01-29T04:53:41;34.10;;;18.63;;
3331;SDS011;1678;50.94845400;5.30809100;2023-01-29T04:56:15;30.00;;;19.75;;
3331;SDS011;1678;50.94845400;5.30809100;2023-01-29T04:58:50;43.10;;;21.27;;
3331;SDS011;1678;50.94845400;5.30809100;2023-01-29T05:01:23;33.00;;;19.38;;
3331;SDS011;1678;50.94845400;5.30809100;2023-01-29T05:03:57;36.65;;;19.00;;
3331;SDS011;1678;50.94845400;5.30809100;2023-01-29T05:06:28;28.15;;;17.58;;
3331;SDS011;1678;50.94845400;5.30809100;2023-01-29T05:08:58;37.03;;;21.00;;
3331;SDS011;1678;50.94845400;5.30809100;2023-01-29T05:11:27;37.75;;;18.63;;
3331;SDS011;1678;50.94845400;5.30809100;2023-01-29T05:13:58;38.78;;;21.15;;
3331;SDS011;1678;50.94845400;5.30809100;2023-01-29T05:16:31;38.25;;;20.70;;
3331;SDS011;1678;50.94845400;5.30809100;2023-01-29T05:19:09;40.97;;;22.30;;
3331;SDS011;1678;50.94845400;5.30809100;2023-01-29T05:21:39;48.03;;;21.98;;
3331;SDS011;1678;50.94845400;5.30809100;2023-01-29T05:24:10;31.73;;;17.92;;
3331;SDS011;1678;50.94845400;5.30809100;2023-01-29T05:26:41;35.50;;;19.23;;
3331;SDS011;1678;50.94845400;5.30809100;2023-01-29T05:29:27;30.33;;;20.08;;
3331;SDS011;1678;50.94845400;5.30809100;2023-01-29T05:31:55;33.25;;;20.10;;
3331;SDS011;1678;50.94845400;5.30809100;2023-01-29T05:34:25;37.28;;;19.30;;
3331;SDS011;1678;50.94845400;5.30809100;2023-01-29T05:36:53;38.92;;;20.38;;
3331;SDS011;1678;50.94845400;5.30809100;2023-01-29T05:39:21;39.67;;;20.73;;
3331;SDS011;1678;50.94845400;5.30809100;2023-01-29T05:41:49;32.55;;;20.23;;
3331;SDS011;1678;50.94845400;5.30809100;2023-01-29T05:44:17;33.78;;;18.95;;
3331;SDS011;1678;50.94845400;5.30809100;2023-01-29T05:46:45;36.63;;;18.25;;
3331;SDS011;1678;50.94845400;5.30809100;2023-01-29T05:49:15;33.42;;;19.08;;
3331;SDS011;1678;50.94845400;5.30809100;2023-01-29T05:51:45;38.10;;;22.40;;
3331;SDS011;1678;50.94845400;5.30809100;2023-01-29T05:54:13;29.85;;;17.33;;
3331;SDS011;1678;50.94845400;5.30809100;2023-01-29T05:56:41;33.63;;;22.00;;
3331;SDS011;1678;50.94845400;5.30809100;2023-01-29T05:59:09;37.75;;;19.98;;
3331;SDS011;1678;50.94845400;5.30809100;2023-01-29T06:01:37;37.38;;;20.50;;
3331;SDS011;1678;50.94845400;5.30809100;2023-01-29T06:04:05;39.75;;;20.33;;
3331;SDS011;1678;50.94845400;5.30809100;2023-01-29T06:06:34;41.85;;;20.52;;
3331;SDS011;1678;50.94845400;5.30809100;2023-01-29T06:09:03;49.05;;;22.15;;
3331;SDS011;1678;50.94845400;5.30809100;2023-01-29T06:11:31;43.05;;;22.30;;
3331;SDS011;1678;50.94845400;5.30809100;2023-01-29T06:13:59;40.80;;;20.35;;
3331;SDS011;1678;50.94845400;5.30809100;2023-01-29T06:16:27;37.50;;;22.35;;
3331;SDS011;1678;50.94845400;5.30809100;2023-01-29T06:18:55;37.65;;;20.88;;
3331;SDS011;1678;50.94845400;5.30809100;2023-01-29T06:21:24;45.97;;;22.33;;
3331;SDS011;1678;50.94845400;5.30809100;2023-01-29T06:23:52;53.50;;;26.83;;
3331;SDS011;1678;50.94845400;5.30809100;2023-01-29T06:26:21;47.80;;;23.30;;
3331;SDS011;1678;50.94845400;5.30809100;2023-01-29T06:28:49;43.20;;;22.25;;
3331;SDS011;1678;50.94845400;5.30809100;2023-01-29T06:31:18;46.13;;;24.63;;
3331;SDS011;1678;50.94845400;5.30809100;2023-01-29T06:34:03;38.08;;;21.63;;
3331;SDS011;1678;50.94845400;5.30809100;2023-01-29T06:36:31;48.13;;;23.63;;
3331;SDS011;1678;50.94845400;5.30809100;2023-01-29T06:38:59;47.53;;;23.60;;
3331;SDS011;1678;50.94845400;5.30809100;2023-01-29T06:41:29;44.28;;;26.25;;
3331;SDS011;1678;50.94845400;5.30809100;2023-01-29T06:43:57;45.00;;;22.73;;
3331;SDS011;1678;50.94845400;5.30809100;2023-01-29T06:46:25;40.97;;;22.90;;
3331;SDS011;1678;50.94845400;5.30809100;2023-01-29T06:48:53;44.80;;;25.02;;
3331;SDS011;1678;50.94845400;5.30809100;2023-01-29T06:51:23;47.78;;;26.40;;
3331;SDS011;1678;50.94845400;5.30809100;2023-01-29T06:53:52;49.63;;;27.23;;
3331;SDS011;1678;50.94845400;5.30809100;2023-01-29T06:56:21;44.00;;;25.08;;
3331;SDS011;1678;50.94845400;5.30809100;2023-01-29T06:58:51;51.80;;;26.83;;
3331;SDS011;1678;50.94845400;5.30809100;2023-01-29T07:01:19;48.22;;;26.67;;
3331;SDS011;1678;50.94845400;5.30809100;2023-01-29T07:04:01;46.90;;;22.50;;
3331;SDS011;1678;50.94845400;5.30809100;2023-01-29T07:06:30;42.45;;;24.25;;
3331;SDS011;1678;50.94845400;5.30809100;2023-01-29T07:08:58;40.75;;;24.25;;
3331;SDS011;1678;50.94845400;5.30809100;2023-01-29T07:11:26;49.30;;;23.48;;
3331;SDS011;1678;50.94845400;5.30809100;2023-01-29T07:13:56;55.38;;;25.95;;
3331;SDS011;1678;50.94845400;5.30809100;2023-01-29T07:16:24;44.28;;;23.98;;
3331;SDS011;1678;50.94845400;5.30809100;2023-01-29T07:18:52;53.33;;;24.88;;
3331;SDS011;1678;50.94845400;5.30809100;2023-01-29T07:21:20;46.10;;;24.17;;
3331;SDS011;1678;50.94845400;5.30809100;2023-01-29T07:23:48;55.92;;;28.92;;
3331;SDS011;1678;50.94845400;5.30809100;2023-01-29T07:26:17;56.85;;;26.55;;
3331;SDS011;1678;50.94845400;5.30809100;2023-01-29T07:28:45;73.72;;;27.15;;
3331;SDS011;1678;50.94845400;5.30809100;2023-01-29T07:31:14;51.83;;;25.88;;
3331;SDS011;1678;50.94845400;5.30809100;2023-01-29T07:33:43;55.15;;;24.92;;
3331;SDS011;1678;50.94845400;5.30809100;2023-01-29T07:36:11;58.10;;;28.15;;
3331;SDS011;1678;50.94845400;5.30809100;2023-01-29T07:38:40;53.88;;;26.88;;
3331;SDS011;1678;50.94845400;5.30809100;2023-01-29T07:41:09;44.72;;;24.17;;
3331;SDS011;1678;50.94845400;5.30809100;2023-01-29T07:43:38;52.40;;;26.63;;
3331;SDS011;1678;50.94845400;5.30809100;2023-01-29T07:46:06;57.03;;;26.92;;
3331;SDS011;1678;50.94845400;5.30809100;2023-01-29T07:48:36;46.58;;;25.88;;
3331;SDS011;1678;50.94845400;5.30809100;2023-01-29T07:51:04;47.28;;;27.75;;
3331;SDS011;1678;50.94845400;5.30809100;2023-01-29T07:53:32;59.47;;;27.75;;
3331;SDS011;1678;50.94845400;5.30809100;2023-01-29T07:56:01;49.95;;;26.33;;
3331;SDS011;1678;50.94845400;5.30809100;2023-01-29T07:58:29;49.03;;;28.33;;
3331;SDS011;1678;50.94845400;5.30809100;2023-01-29T08:00:58;63.42;;;27.95;;
3331;SDS011;1678;50.94845400;5.30809100;2023-01-29T08:03:26;61.13;;;28.90;;
3331;SDS011;1678;50.94845400;5.30809100;2023-01-29T08:05:55;51.10;;;24.33;;
3331;SDS011;1678;50.94845400;5.30809100;2023-01-29T08:08:24;49.33;;;24.05;;
3331;SDS011;1678;50.94845400;5.30809100;2023-01-29T08:10:52;57.20;;;25.33;;
3331;SDS011;1678;50.94845400;5.30809100;2023-01-29T08:13:20;61.45;;;27.02;;
3331;SDS011;1678;50.94845400;5.30809100;2023-01-29T08:15:48;62.53;;;28.58;;
3331;SDS011;1678;50.94845400;5.30809100;2023-01-29T08:18:16;60.70;;;30.88;;
3331;SDS011;1678;50.94845400;5.30809100;2023-01-29T08:20:44;65.63;;;27.65;;
3331;SDS011;1678;50.94845400;5.30809100;2023-01-29T08:23:14;63.83;;;29.33;;
3331;SDS011;1678;50.94845400;5.30809100;2023-01-29T08:25:42;52.45;;;24.42;;
3331;SDS011;1678;50.94845400;5.30809100;2023-01-29T08:28:11;59.83;;;28.50;;
3331;SDS011;1678;50.94845400;5.30809100;2023-01-29T08:30:39;52.92;;;24.77;;
3331;SDS011;1678;50.94845400;5.30809100;2023-01-29T08:33:09;62.72;;;28.33;;
3331;SDS011;1678;50.94845400;5.30809100;2023-01-29T08:35:37;52.85;;;27.23;;
3331;SDS011;1678;50.94845400;5.30809100;2023-01-29T08:38:06;56.15;;;26.92;;
3331;SDS011;1678;50.94845400;5.30809100;2023-01-29T08:40:36;56.72;;;28.83;;
3331;SDS011;1678;50.94845400;5.30809100;2023-01-29T08:43:06;48.53;;;25.75;;
3331;SDS011;1678;50.94845400;5.30809100;2023-01-29T08:45:35;60.22;;;28.02;;
3331;SDS011;1678;50.94845400;5.30809100;2023-01-29T08:48:05;50.58;;;27.10;;
3331;SDS011;1678;50.94845400;5.30809100;2023-01-29T08:50:34;60.83;;;30.90;;
3331;SDS011;1678;50.94845400;5.30809100;2023-01-29T08:53:03;56.85;;;26.85;;
3331;SDS011;1678;50.94845400;5.30809100;2023-01-29T08:55:34;54.25;;;27.83;;
3331;SDS011;1678;50.94845400;5.30809100;2023-01-29T08:58:04;53.63;;;29.67;;
3331;SDS011;1678;50.94845400;5.30809100;2023-01-29T09:00:33;53.70;;;27.95;;
3331;SDS011;1678;50.94845400;5.30809100;2023-01-29T09:03:01;60.83;;;25.80;;
3331;SDS011;1678;50.94845400;5.30809100;2023-01-29T09:05:30;56.90;;;25.20;;
3331;SDS011;1678;50.94845400;5.30809100;2023-01-29T09:07:58;57.30;;;26.40;;
3331;SDS011;1678;50.94845400;5.30809100;2023-01-29T09:10:26;60.17;;;28.88;;
3331;SDS011;1678;50.94845400;5.30809100;2023-01-29T09:12:54;51.10;;;26.40;;
3331;SDS011;1678;50.94845400;5.30809100;2023-01-29T09:15:24;53.90;;;28.65;;
3331;SDS011;1678;50.94845400;5.30809100;2023-01-29T09:17:52;50.08;;;28.60;;
3331;SDS011;1678;50.94845400;5.30809100;2023-01-29T09:20:20;64.82;;;30.95;;
3331;SDS011;1678;50.94845400;5.30809100;2023-01-29T09:22:49;53.78;;;26.50;;
3331;SDS011;1678;50.94845400;5.30809100;2023-01-29T09:25:19;61.83;;;30.48;;
3331;SDS011;1678;50.94845400;5.30809100;2023-01-29T09:27:49;46.70;;;25.15;;
3331;SDS011;1678;50.94845400;5.30809100;2023-01-29T09:30:17;47.42;;;26.13;;
3331;SDS011;1678;50.94845400;5.30809100;2023-01-29T09:32:47;60.97;;;30.02;;
3331;SDS011;1678;50.94845400;5.30809100;2023-01-29T09:35:19;63.63;;;27.63;;
3331;SDS011;1678;50.94845400;5.30809100;2023-01-29T09:37:47;51.58;;;25.35;;
3331;SDS011;1678;50.94845400;5.30809100;2023-01-29T09:40:19;55.45;;;27.80;;
3331;SDS011;1678;50.94845400;5.30809100;2023-01-29T09:42:53;59.35;;;26.05;;
3331;SDS011;1678;50.94845400;5.30809100;2023-01-29T09:45:24;47.38;;;26.50;;
3331;SDS011;1678;50.94845400;5.30809100;2023-01-29T09:47:56;62.63;;;25.85;;
3331;SDS011;1678;50.94845400;5.30809100;2023-01-29T09:50:28;54.72;;;27.40;;
3331;SDS011;1678;50.94845400;5.30809100;2023-01-29T09:53:00;54.47;;;26.30;;
3331;SDS011;1678;50.94845400;5.30809100;2023-01-29T09:55:36;48.35;;;27.45;;
3331;SDS011;1678;50.94845400;5.30809100;2023-01-29T09:58:10;49.85;;;26.42;;
3331;SDS011;1678;50.94845400;5.30809100;2023-01-29T10:00:47;47.75;;;26.20;;
3331;SDS011;1678;50.94845400;5.30809100;2023-01-29T10:03:26;54.40;;;29.42;;
3331;SDS011;1678;50.94845400;5.30809100;2023-01-29T10:06:14;47.13;;;27.45;;
3331;SDS011;1678;50.94845400;5.30809100;2023-01-29T10:08:58;48.78;;;23.80;;
3331;SDS011;1678;50.94845400;5.30809100;2023-01-29T10:11:37;53.28;;;27.27;;
3331;SDS011;1678;50.94845400;5.30809100;2023-01-29T10:14:17;59.00;;;27.27;;
3331;SDS011;1678;50.94845400;5.30809100;2023-01-29T10:16:58;54.80;;;28.40;;
3331;SDS011;1678;50.94845400;5.30809100;2023-01-29T10:19:48;44.67;;;24.60;;
3331;SDS011;1678;50.94845400;5.30809100;2023-01-29T10:22:35;57.33;;;24.95;;
3331;SDS011;1678;50.94845400;5.30809100;2023-01-29T10:25:23;52.13;;;25.98;;
3331;SDS011;1678;50.94845400;5.30809100;2023-01-29T10:27:53;54.40;;;25.15;;
3331;SDS011;1678;50.94845400;5.30809100;2023-01-29T10:30:27;45.70;;;24.25;;
3331;SDS011;1678;50.94845400;5.30809100;2023-01-29T10:32:58;49.47;;;25.60;;
3331;SDS011;1678;50.94845400;5.30809100;2023-01-29T10:35:32;50.50;;;26.00;;
3331;SDS011;1678;50.94845400;5.30809100;2023-01-29T10:38:10;49.15;;;24.23;;
3331;SDS011;1678;50.94845400;5.30809100;2023-01-29T10:40:45;56.60;;;29.48;;
3331;SDS011;1678;50.94845400;5.30809100;2023-01-29T10:43:19;59.97;;;28.35;;
3331;SDS011;1678;50.94845400;5.30809100;2023-01-29T10:45:55;48.13;;;23.67;;
3331;SDS011;1678;50.94845400;5.30809100;2023-01-29T10:48:34;44.78;;;22.92;;
3331;SDS011;1678;50.94845400;5.30809100;2023-01-29T10:51:21;43.22;;;22.13;;
3331;SDS011;1678;50.94845400;5.30809100;2023-01-29T10:54:02;54.88;;;26.23;;
3331;SDS011;1678;50.94845400;5.30809100;2023-01-29T10:56:45;43.28;;;21.92;;
3331;SDS011;1678;50.94845400;5.30809100;2023-01-29T10:59:30;42.67;;;23.45;;
3331;SDS011;1678;50.94845400;5.30809100;2023-01-29T11:02:18;40.08;;;24.95;;
3331;SDS011;1678;50.94845400;5.30809100;2023-01-29T11:04:48;41.50;;;24.60;;
3331;SDS011;1678;50.94845400;5.30809100;2023-01-29T11:07:18;40.30;;;22.55;;
3331;SDS011;1678;50.94845400;5.30809100;2023-01-29T11:09:49;42.20;;;24.25;;
3331;SDS011;1678;50.94845400;5.30809100;2023-01-29T11:12:22;52.63;;;27.23;;
3331;SDS011;1678;50.94845400;5.30809100;2023-01-29T11:14:57;43.25;;;24.50;;
3331;SDS011;1678;50.94845400;5.30809100;2023-01-29T11:17:29;44.13;;;24.25;;
3331;SDS011;1678;50.94845400;5.30809100;2023-01-29T11:19:57;47.00;;;23.73;;
3331;SDS011;1678;50.94845400;5.30809100;2023-01-29T11:22:27;34.85;;;17.65;;
3331;SDS011;1678;50.94845400;5.30809100;2023-01-29T11:25:07;42.35;;;24.60;;
3331;SDS011;1678;50.94845400;5.30809100;2023-01-29T11:27:41;41.80;;;23.63;;
3331;SDS011;1678;50.94845400;5.30809100;2023-01-29T11:30:15;45.38;;;24.25;;
3331;SDS011;1678;50.94845400;5.30809100;2023-01-29T11:32:49;40.97;;;23.50;;
3331;SDS011;1678;50.94845400;5.30809100;2023-01-29T11:35:22;37.90;;;21.73;;
3331;SDS011;1678;50.94845400;5.30809100;2023-01-29T11:37:53;44.28;;;21.33;;
3331;SDS011;1678;50.94845400;5.30809100;2023-01-29T11:40:35;39.20;;;22.40;;
3331;SDS011;1678;50.94845400;5.30809100;2023-01-29T11:43:12;40.40;;;22.27;;
3331;SDS011;1678;50.94845400;5.30809100;2023-01-29T11:45:56;35.42;;;19.95;;
3331;SDS011;1678;50.94845400;5.30809100;2023-01-29T11:48:31;37.55;;;22.88;;
3331;SDS011;1678;50.94845400;5.30809100;2023-01-29T11:51:06;34.42;;;19.85;;
3331;SDS011;1678;50.94845400;5.30809100;2023-01-29T11:53:38;36.55;;;21.67;;
3331;SDS011;1678;50.94845400;5.30809100;2023-01-29T11:56:17;40.55;;;21.80;;
3331;SDS011;1678;50.94845400;5.30809100;2023-01-29T11:58:48;34.95;;;20.35;;
3331;SDS011;1678;50.94845400;5.30809100;2023-01-29T12:01:22;38.50;;;21.38;;
3331;SDS011;1678;50.94845400;5.30809100;2023-01-29T12:03:57;33.53;;;21.95;;
3331;SDS011;1678;50.94845400;5.30809100;2023-01-29T12:06:27;45.00;;;21.50;;
3331;SDS011;1678;50.94845400;5.30809100;2023-01-29T12:09:02;44.78;;;22.98;;
3331;SDS011;1678;50.94845400;5.30809100;2023-01-29T12:11:37;32.65;;;20.70;;
3331;SDS011;1678;50.94845400;5.30809100;2023-01-29T12:14:19;37.28;;;19.73;;
3331;SDS011;1678;50.94845400;5.30809100;2023-01-29T12:16:53;37.38;;;21.52;;
3331;SDS011;1678;50.94845400;5.30809100;2023-01-29T12:19:27;35.63;;;20.08;;
3331;SDS011;1678;50.94845400;5.30809100;2023-01-29T12:22:03;41.75;;;24.27;;
3331;SDS011;1678;50.94845400;5.30809100;2023-01-29T12:24:37;40.72;;;20.52;;
3331;SDS011;1678;50.94845400;5.30809100;2023-01-29T12:27:11;37.20;;;20.38;;
3331;SDS011;1678;50.94845400;5.30809100;2023-01-29T12:29:46;42.97;;;21.50;;
3331;SDS011;1678;50.94845400;5.30809100;2023-01-29T12:32:22;44.40;;;23.70;;
3331;SDS011;1678;50.94845400;5.30809100;2023-01-29T12:34:56;42.80;;;22.52;;
3331;SDS011;1678;50.94845400;5.30809100;2023-01-29T12:37:37;46.28;;;23.67;;
3331;SDS011;1678;50.94845400;5.30809100;2023-01-29T12:40:13;32.53;;;20.33;;
3331;SDS011;1678;50.94845400;5.30809100;2023-01-29T12:42:44;38.05;;;21.08;;
3331;SDS011;1678;50.94845400;5.30809100;2023-01-29T12:45:15;30.35;;;17.73;;
3331;SDS011;1678;50.94845400;5.30809100;2023-01-29T12:47:46;39.95;;;20.67;;
3331;SDS011;1678;50.94845400;5.30809100;2023-01-29T12:50:17;36.72;;;22.35;;
3331;SDS011;1678;50.94845400;5.30809100;2023-01-29T12:52:49;30.58;;;18.17;;
3331;SDS011;1678;50.94845400;5.30809100;2023-01-29T12:55:21;38.08;;;22.17;;
3331;SDS011;1678;50.94845400;5.30809100;2023-01-29T12:57:52;38.80;;;21.70;;
3331;SDS011;1678;50.94845400;5.30809100;2023-01-29T13:00:24;41.35;;;19.65;;
3331;SDS011;1678;50.94845400;5.30809100;2023-01-29T13:02:56;37.55;;;20.50;;
3331;SDS011;1678;50.94845400;5.30809100;2023-01-29T13:05:27;35.42;;;19.45;;
3331;SDS011;1678;50.94845400;5.30809100;2023-01-29T13:08:02;35.05;;;19.85;;
3331;SDS011;1678;50.94845400;5.30809100;2023-01-29T13:10:35;43.60;;;18.40;;
3331;SDS011;1678;50.94845400;5.30809100;2023-01-29T13:13:11;21.55;;;15.73;;
3331;SDS011;1678;50.94845400;5.30809100;2023-01-29T13:15:45;32.85;;;19.10;;
3331;SDS011;1678;50.94845400;5.30809100;2023-01-29T13:18:21;30.55;;;17.02;;
3331;SDS011;1678;50.94845400;5.30809100;2023-01-29T13:20:59;31.98;;;17.58;;
3331;SDS011;1678;50.94845400;5.30809100;2023-01-29T13:23:29;33.45;;;16.77;;